| time (UTC) | temp F | wind direction | speed knots | gust knots | rain 1hr in | rain 24hr in | rain mn in | humidity % | barometer mb |
| 20260507184537 | 60 | 310 | 0.0 | 1.7 | 0.01 | 0.04 | 0.02 | 60 | 1012.2 |
| 20260507183041 | 61 | 310 | 0.0 | 2.6 | 0.00 | 0.03 | 0.02 | 60 | 1012.0 |
| 20260507181519 | 62 | 308 | 0.0 | 1.7 | 0.00 | 0.03 | 0.02 | 60 | 1012.1 |
| 20260507180028 | 63 | 233 | 0.0 | 1.7 | 0.00 | 0.03 | 0.02 | 60 | 1012.0 |
| 20260507174617 | 63 | 239 | 0.0 | 1.7 | 0.00 | 0.03 | 0.02 | 59 | 1011.9 |
| 20260507173016 | 64 | 236 | 0.0 | 2.6 | 0.00 | 0.03 | 0.02 | 59 | 1011.8 |
| 20260507171512 | 65 | 233 | 0.0 | 2.6 | 0.00 | 0.03 | 0.02 | 57 | 1011.7 |
| 20260507170007 | 66 | 241 | 0.0 | 2.6 | 0.00 | 0.03 | 0.02 | 56 | 1011.8 |
| 20260507164504 | 67 | 243 | 0.0 | 3.5 | 0.00 | 0.03 | 0.02 | 54 | 1011.9 |
| 20260507163003 | 67 | 243 | 0.0 | 2.6 | 0.00 | 0.03 | 0.02 | 53 | 1011.9 |
| 20260507161603 | 67 | 250 | 0.0 | 1.7 | 0.00 | 0.03 | 0.02 | 52 | 1011.9 |
| 20260507160050 | 67 | 236 | 0.9 | 6.1 | 0.00 | 0.04 | 0.02 | 49 | 1011.9 |
| 20260507154550 | 67 | 223 | 0.0 | 3.5 | 0.00 | 0.04 | 0.02 | 50 | 1011.8 |
| 20260507153055 | 67 | 235 | 0.0 | 3.5 | 0.00 | 0.04 | 0.02 | 49 | 1011.9 |
| 20260507151547 | 67 | 248 | 1.7 | 6.1 | 0.00 | 0.04 | 0.02 | 49 | 1011.9 |
| 20260507150050 | 67 | 233 | 1.7 | 5.2 | 0.00 | 0.05 | 0.02 | 49 | 1012.0 |
| 20260507144548 | 68 | 250 | 1.7 | 4.3 | 0.01 | 0.05 | 0.02 | 51 | 1012.2 |
| 20260507143047 | 68 | 238 | 1.7 | 5.2 | 0.01 | 0.05 | 0.02 | 48 | 1012.2 |
| 20260507141524 | 69 | 223 | 1.7 | 7.0 | 0.01 | 0.05 | 0.02 | 50 | 1012.3 |
| 20260507140021 | 69 | 240 | 0.9 | 6.1 | 0.01 | 0.06 | 0.02 | 51 | 1012.5 |
| 20260507134503 | 68 | 235 | 0.9 | 6.1 | 0.00 | 0.05 | 0.01 | 54 | 1012.6 |
| 20260507133106 | 68 | 271 | 1.7 | 5.2 | 0.01 | 0.05 | 0.01 | 54 | 1012.6 |
| 20260507131548 | 68 | 193 | 0.0 | 4.3 | 0.01 | 0.05 | 0.01 | 58 | 1012.8 |
| 20260507130046 | 68 | 234 | 0.9 | 4.3 | 0.01 | 0.06 | 0.01 | 58 | 1012.7 |
| 20260507124544 | 68 | 212 | 0.9 | 6.1 | 0.01 | 0.06 | 0.01 | 59 | 1012.8 |
| 20260507123045 | 67 | 225 | 0.9 | 4.3 | 0.00 | 0.05 | 0.00 | 62 | 1012.7 |
| 20260507121543 | 67 | 206 | 0.9 | 4.3 | 0.00 | 0.05 | 0.00 | 63 | 1012.8 |
| 20260507120043 | 66 | 223 | 0.9 | 3.5 | 0.00 | 0.06 | 0.00 | 65 | 1012.9 |
| 20260507114534 | 65 | 235 | 0.9 | 3.5 | 0.00 | 0.06 | 0.00 | 64 | 1012.9 |
| 20260507113041 | 65 | 238 | 0.9 | 5.2 | 0.00 | 0.06 | 0.00 | 65 | 1013.1 |
| 20260507111517 | 64 | 253 | 0.9 | 4.3 | 0.00 | 0.06 | 0.00 | 66 | 1013.3 |
| 20260507110015 | 64 | 210 | 1.7 | 7.8 | 0.00 | 0.08 | 0.00 | 65 | 1013.5 |
| 20260507104514 | 63 | 187 | 1.7 | 4.3 | 0.00 | 0.08 | 0.00 | 62 | 1013.5 |
| 20260507103008 | 0 | 0.0 | 0.0 | 0.00 | 0.08 | 0.00 | 1013.7 | ||
| 20260507101507 | 0 | 0.0 | 0.0 | 0.00 | 0.08 | 0.00 | 1013.8 | ||
| 20260507100105 | 0 | 0.0 | 0.0 | 0.00 | 0.08 | 0.00 | 1013.8 | ||
| 20260507094557 | 0 | 0.0 | 0.0 | 0.00 | 0.08 | 0.00 | 1013.7 | ||
| 20260507093049 | 0 | 0.0 | 0.0 | 0.00 | 0.08 | 0.00 | 1013.7 | ||
| 20260507091547 | 0 | 0.0 | 0.0 | 0.00 | 0.08 | 0.00 | 1013.7 | ||
| 20260507090029 | 0 | 0.0 | 0.0 | 0.00 | 0.08 | 0.00 | 1013.9 | ||
| 20260507084525 | 0 | 0.0 | 0.0 | 0.00 | 0.08 | 0.00 | 1013.9 | ||
| 20260507083022 | 0 | 0.0 | 0.0 | 0.00 | 0.08 | 0.00 | 1013.7 | ||
| 20260507081516 | 0 | 0.0 | 0.0 | 0.00 | 0.08 | 0.00 | 1013.8 | ||
| 20260507080012 | 0 | 0.0 | 0.0 | 0.00 | 0.08 | 0.08 | 1013.6 | ||
| 20260507074508 | 0 | 0.0 | 0.0 | 0.00 | 0.08 | 0.08 | 1013.6 | ||
| 20260507073003 | 0 | 0.0 | 0.0 | 0.00 | 0.08 | 0.08 | 1013.5 | ||
| 20260507071559 | 0 | 0.0 | 0.0 | 0.00 | 0.08 | 0.08 | 1013.4 | ||
| 20260507070044 | 0 | 0.0 | 0.0 | 0.00 | 0.08 | 0.08 | 1013.2 | ||
| 20260507064545 | 0 | 0.0 | 0.0 | 0.00 | 0.08 | 0.08 | 1013.1 | ||
| 20260507063045 | 0 | 0.0 | 0.0 | 0.00 | 0.08 | 0.08 | 1013.1 | ||
| 20260507061536 | 0 | 0.0 | 0.0 | 0.00 | 0.08 | 0.08 | 1013.0 | ||
| 20260507060025 | 0 | 0.0 | 0.0 | 0.00 | 0.08 | 0.08 | 1012.8 | ||
| 20260507054521 | 0 | 0.0 | 0.0 | 0.00 | 0.08 | 0.08 | 1012.7 | ||
| 20260507053021 | 0 | 0.0 | 0.0 | 0.00 | 0.08 | 0.08 | 1012.6 | ||
| 20260507051513 | 0 | 0.0 | 0.0 | 0.00 | 0.08 | 0.08 | 1012.6 | ||
| 20260507050100 | 0 | 0.0 | 0.0 | 0.00 | 0.08 | 0.08 | 1012.4 | ||
| 20260507044601 | 0 | 0.0 | 0.0 | 0.00 | 0.08 | 0.08 | 1012.3 | ||
| 20260507043058 | 0 | 0.0 | 0.0 | 0.00 | 0.08 | 0.08 | 1012.2 | ||
| 20260507041601 | 0 | 0.0 | 0.0 | 0.00 | 0.08 | 0.08 | 1012.0 | ||
| 20260507040106 | 0 | 0.0 | 0.0 | 0.00 | 0.08 | 0.08 | 1011.9 | ||
| 20260507034619 | 0 | 0.0 | 0.0 | 0.00 | 0.08 | 0.08 | 1012.0 | ||
| 20260507033106 | 0 | 0.0 | 0.0 | 0.00 | 0.08 | 0.08 | 1012.0 | ||
| 20260507031556 | 0 | 0.0 | 0.0 | 0.00 | 0.08 | 0.08 | 1012.0 | ||
| 20260507030044 | 0 | 0.0 | 0.0 | 0.00 | 0.08 | 0.08 | 1012.1 | ||
| 20260507024553 | 0 | 0.0 | 0.0 | 0.00 | 0.08 | 0.08 | 1012.0 | ||
| 20260507023043 | 0 | 0.0 | 0.0 | 0.00 | 0.08 | 0.08 | 1012.2 | ||
| 20260507021540 | 50 | 229 | 0.0 | 0.0 | 0.00 | 0.08 | 0.08 | 1 | 1012.3 |
| 20260507020034 | 50 | 229 | 0.0 | 0.0 | 0.00 | 0.08 | 0.08 | 1 | 1012.2 |
| 20260507014530 | 50 | 229 | 0.0 | 0.0 | 0.00 | 0.08 | 0.08 | 1 | 1012.1 |
| 20260507013025 | 50 | 229 | 0.0 | 0.0 | 0.00 | 0.08 | 0.08 | 1 | 1012.1 |
| 20260507011521 | 51 | 229 | 0.0 | 0.0 | 0.00 | 0.08 | 0.08 | 1 | 1012.0 |
| 20260507010059 | 51 | 229 | 0.0 | 0.0 | 0.00 | 0.09 | 0.08 | 1 | 1012.1 |
| 20260507004555 | 51 | 229 | 0.0 | 0.9 | 0.00 | 0.09 | 0.08 | 1 | 1012.2 |
| 20260507003038 | 52 | 229 | 0.0 | 0.0 | 0.00 | 0.09 | 0.08 | 1 | 1012.1 |
| 20260507003013 | 52 | 229 | 0.0 | 0.0 | 0.00 | 0.09 | 0.08 | 1 | 1012.2 |
| 20260507000030 | 52 | 229 | 0.0 | 0.0 | 0.00 | 0.09 | 0.08 | 1 | 1012.2 |
| 20260506234542 | 52 | 229 | 0.0 | 0.0 | 0.00 | 0.09 | 0.08 | 1 | 1012.1 |
| 20260506233023 | 53 | 228 | 0.0 | 0.9 | 0.01 | 0.09 | 0.08 | 1 | 1012.4 |
| 20260506231522 | 53 | 229 | 0.0 | 0.0 | 0.01 | 0.09 | 0.08 | 1 | 1012.2 |
| 20260506230021 | 53 | 228 | 0.0 | 0.0 | 0.01 | 0.10 | 0.08 | 1 | 1012.1 |
| 20260506224525 | 53 | 228 | 0.0 | 0.9 | 0.01 | 0.10 | 0.08 | 1 | 1012.2 |
| 20260506223103 | 53 | 228 | 0.0 | 0.0 | 0.00 | 0.09 | 0.07 | 1 | 1012.2 |
| 20260506221554 | 53 | 228 | 0.0 | 0.0 | 0.00 | 0.09 | 0.07 | 1 | 1012.1 |
| 20260506220104 | 53 | 228 | 0.0 | 0.9 | 0.00 | 0.09 | 0.07 | 1 | 1011.9 |
| 20260506214546 | 54 | 229 | 0.0 | 0.9 | 0.00 | 0.09 | 0.07 | 1 | 1012.0 |
| 20260506213041 | 55 | 229 | 0.0 | 1.7 | 0.00 | 0.09 | 0.07 | 1 | 1012.2 |
| 20260506211542 | 55 | 229 | 0.0 | 0.9 | 0.00 | 0.09 | 0.07 | 1 | 1012.0 |
| 20260506210032 | 56 | 229 | 0.0 | 0.0 | 0.00 | 0.10 | 0.07 | 1 | 1011.9 |
| 20260506204531 | 56 | 229 | 0.0 | 0.0 | 0.00 | 0.10 | 0.07 | 1 | 1011.8 |
| 20260506203013 | 57 | 229 | 0.0 | 0.9 | 0.00 | 0.10 | 0.07 | 1 | 1011.7 |
| 20260506201506 | 57 | 229 | 0.0 | 0.9 | 0.00 | 0.10 | 0.07 | 1 | 1011.7 |
| 20260506200003 | 57 | 229 | 0.0 | 0.9 | 0.00 | 0.11 | 0.07 | 6 | 1011.5 |
| 20260506194601 | 58 | 229 | 0.0 | 0.9 | 0.00 | 0.11 | 0.07 | 10 | 1011.3 |
| 20260506193056 | 58 | 229 | 0.0 | 0.9 | 0.01 | 0.11 | 0.07 | 16 | 1011.0 |
| 20260506191548 | 58 | 229 | 0.0 | 1.7 | 0.01 | 0.11 | 0.07 | 21 | 1010.8 |
| 20260506190044 | 58 | 229 | 0.0 | 0.9 | 0.01 | 0.12 | 0.07 | 26 | 1010.6 |